Time;durP1;ratioP1;P1;durP2;ratioP2;P2;SDS_P1;SDS_P2;PMS_P1;PMS_P2;Temp;Humidity;BMP_temperature;BMP_pressure;BME280_temperature;BME280_humidity;BME280_pressure;Samples;Min_cycle;Max_cycle;Signal;HPM_P1;HPM_P2
2023/06/01 00:01:49;;;;;;;4.90;2.40;;;18.40;63.30;;;;;;5042685;28;22402;-82
2023/06/01 00:04:14;;;;;;;3.90;2.55;;;18.30;63.30;;;;;;5020065;28;20324;-81
2023/06/01 00:06:40;;;;;;;3.95;2.17;;;18.30;63.40;;;;;;5027374;28;20265;-82
2023/06/01 00:09:07;;;;;;;4.57;2.53;;;18.30;63.40;;;;;;5062827;28;20482;-82
2023/06/01 00:11:33;;;;;;;5.00;2.55;;;18.30;63.20;;;;;;5047161;28;20390;-82
2023/06/01 00:13:59;;;;;;;4.47;2.47;;;18.20;63.20;;;;;;5002221;28;20025;-83
2023/06/01 00:16:25;;;;;;;4.20;2.50;;;18.20;62.70;;;;;;5032212;28;20221;-82
2023/06/01 00:18:52;;;;;;;4.40;2.77;;;18.10;63.40;;;;;;5058635;28;20563;-82
2023/06/01 00:21:19;;;;;;;4.75;2.63;;;18.00;63.70;;;;;;5047868;28;20164;-82
2023/06/01 00:23:45;;;;;;;5.05;2.38;;;18.00;63.80;;;;;;5045385;28;20036;-81
2023/06/01 00:26:11;;;;;;;4.90;2.70;;;17.90;63.80;;;;;;5047965;28;20509;-86
2023/06/01 00:28:37;;;;;;;4.93;2.87;;;17.90;64.10;;;;;;5020279;28;20031;-81
2023/06/01 00:31:03;;;;;;;8.27;3.00;;;17.80;64.00;;;;;;5011789;28;20271;-81
2023/06/01 00:33:28;;;;;;;4.18;2.80;;;17.80;64.40;;;;;;5045035;28;20027;-84
2023/06/01 00:35:54;;;;;;;4.50;2.60;;;17.70;64.40;;;;;;5038368;28;20029;-86
2023/06/01 00:38:20;;;;;;;4.28;2.72;;;17.70;64.50;;;;;;5019185;28;20354;-83
2023/06/01 00:40:49;;;;;;;5.20;2.90;;;17.60;64.50;;;;;;5082365;27;20521;-83
2023/06/01 00:43:16;;;;;;;5.07;2.90;;;17.60;64.60;;;;;;5025508;28;20036;-82
2023/06/01 00:45:41;;;;;;;7.35;2.90;;;17.50;64.90;;;;;;5069900;28;20324;-84
2023/06/01 00:48:07;;;;;;;4.82;2.92;;;17.40;65.10;;;;;;5004709;28;20528;-83
2023/06/01 00:50:33;;;;;;;4.53;2.77;;;17.40;65.00;;;;;;5051479;28;20040;-82
2023/06/01 00:53:01;;;;;;;5.78;2.80;;;17.40;65.40;;;;;;5024199;28;20738;-83
2023/06/01 00:55:27;;;;;;;4.70;2.78;;;17.30;65.40;;;;;;5039226;28;20371;-84
2023/06/01 00:57:55;;;;;;;5.17;2.97;;;17.30;65.30;;;;;;5073273;27;20581;-84
2023/06/01 01:00:22;;;;;;;4.47;2.47;;;17.30;65.80;;;;;;5057872;28;20031;-83
2023/06/01 01:02:48;;;;;;;4.75;2.65;;;17.20;65.30;;;;;;5027288;28;20103;-83
2023/06/01 01:05:15;;;;;;;6.05;2.90;;;17.20;65.40;;;;;;5066525;28;20116;-83
2023/06/01 01:07:50;;;;;;;5.60;3.15;;;17.20;65.80;;;;;;5069990;27;21857;-82
2023/06/01 01:10:16;;;;;;;4.93;2.60;;;17.10;65.40;;;;;;5036301;28;20104;-82
2023/06/01 01:12:55;;;;;;;4.75;2.78;;;17.10;65.50;;;;;;5016770;28;20429;-82
2023/06/01 01:15:47;;;;;;;6.75;3.08;;;17.00;65.90;;;;;;5028037;28;20300;-82
2023/06/01 01:18:21;;;;;;;5.80;2.97;;;17.00;66.90;;;;;;4991117;28;20305;-82
2023/06/01 01:20:57;;;;;;;6.53;2.80;;;16.90;66.10;;;;;;5064444;28;20072;-83
2023/06/01 01:24:09;;;;;;;4.95;2.83;;;16.90;66.50;;;;;;5021945;28;20237;-83
2023/06/01 01:27:00;;;;;;;4.72;2.80;;;16.80;67.70;;;;;;5076395;27;20063;-83
2023/06/01 01:29:31;;;;;;;4.18;2.60;;;16.80;68.00;;;;;;5066645;28;20518;-83
2023/06/01 01:32:00;;;;;;;4.37;2.90;;;16.80;66.40;;;;;;5037606;28;20021;-83
2023/06/01 01:34:28;;;;;;;7.25;3.20;;;16.70;66.80;;;;;;5021004;28;20652;-83
2023/06/01 01:36:55;;;;;;;4.82;3.05;;;16.70;66.80;;;;;;5049272;28;20024;-81
2023/06/01 01:39:21;;;;;;;5.97;3.13;;;16.70;66.60;;;;;;5035857;28;20603;-83
2023/06/01 01:41:46;;;;;;;5.83;2.90;;;16.70;66.30;;;;;;5050006;28;20028;-83
2023/06/01 01:44:14;;;;;;;6.35;3.10;;;16.60;66.50;;;;;;5041770;28;20533;-82
2023/06/01 01:46:58;;;;;;;6.32;3.00;;;16.60;66.80;;;;;;5059358;28;20024;-81
2023/06/01 01:49:30;;;;;;;5.83;3.00;;;16.60;66.90;;;;;;5007341;28;20051;-83
2023/06/01 01:52:25;;;;;;;5.40;3.00;;;16.50;67.20;;;;;;5031778;28;20039;-81
2023/06/01 01:54:52;;;;;;;7.80;3.00;;;16.50;68.90;;;;;;5034711;28;20075;-82
2023/06/01 01:57:18;;;;;;;5.38;3.25;;;16.50;66.90;;;;;;5023245;28;20137;-85
2023/06/01 01:59:46;;;;;;;4.60;3.15;;;16.40;67.10;;;;;;5061077;28;20043;-81
2023/06/01 02:02:12;;;;;;;5.73;2.97;;;16.30;67.30;;;;;;5060825;28;20167;-83
2023/06/01 02:04:47;;;;;;;6.18;3.22;;;16.30;67.10;;;;;;5049859;28;20039;-84
2023/06/01 02:07:13;;;;;;;5.50;3.10;;;16.30;67.80;;;;;;5012326;28;20060;-82
2023/06/01 02:09:40;;;;;;;5.45;3.40;;;16.30;67.20;;;;;;5069986;27;20021;-83
2023/06/01 02:12:06;;;;;;;5.87;3.33;;;16.20;67.80;;;;;;5048069;28;20024;-82
2023/06/01 02:14:33;;;;;;;5.03;3.03;;;16.10;67.60;;;;;;5054802;28;20040;-84
2023/06/01 02:17:00;;;;;;;5.68;2.83;;;16.10;67.60;;;;;;5023748;28;20041;-81
2023/06/01 02:19:26;;;;;;;5.68;2.85;;;16.10;67.60;;;;;;5042985;28;20506;-82
2023/06/01 02:21:52;;;;;;;7.93;3.05;;;16.00;67.40;;;;;;5017093;28;20122;-83
2023/06/01 02:24:18;;;;;;;5.90;3.13;;;16.00;67.70;;;;;;5029468;28;20134;-84
2023/06/01 02:26:48;;;;;;;6.45;4.00;;;15.90;67.70;;;;;;5079871;28;20044;-84
2023/06/01 02:29:14;;;;;;;6.38;3.30;;;15.90;67.90;;;;;;5036016;28;20855;-85
2023/06/01 02:31:40;;;;;;;5.40;3.22;;;15.90;68.20;;;;;;5030978;28;20024;-80
2023/06/01 02:34:07;;;;;;;7.53;3.50;;;15.80;68.20;;;;;;5037473;28;20673;-83
2023/06/01 02:36:34;;;;;;;5.13;3.20;;;15.80;68.50;;;;;;5021646;28;20098;-84
2023/06/01 02:39:00;;;;;;;5.90;3.00;;;15.70;68.30;;;;;;5055795;28;20036;-83
2023/06/01 02:41:25;;;;;;;6.13;3.23;;;15.70;68.40;;;;;;5038282;28;20448;-82
2023/06/01 02:43:51;;;;;;;7.15;3.30;;;15.70;68.40;;;;;;5045777;28;20028;-83
2023/06/01 02:46:18;;;;;;;5.13;3.35;;;15.60;68.30;;;;;;5037085;28;20069;-82
2023/06/01 02:48:45;;;;;;;5.90;3.10;;;15.60;68.50;;;;;;5067189;28;20041;-83
2023/06/01 02:51:11;;;;;;;5.88;3.50;;;15.50;68.40;;;;;;5046240;28;20020;-82
2023/06/01 02:53:39;;;;;;;5.90;3.38;;;15.50;68.40;;;;;;5051842;28;20356;-82
2023/06/01 02:56:05;;;;;;;5.88;3.38;;;15.50;68.90;;;;;;5033586;28;20209;-83
2023/06/01 02:58:31;;;;;;;5.38;3.38;;;15.40;68.60;;;;;;5046438;28;20021;-84
2023/06/01 03:01:00;;;;;;;7.13;3.60;;;15.40;69.00;;;;;;5037563;28;20025;-83
2023/06/01 03:03:27;;;;;;;6.70;3.25;;;15.40;69.00;;;;;;5033239;28;20418;-83
2023/06/01 03:05:53;;;;;;;6.30;3.50;;;15.30;69.10;;;;;;5050341;28;20031;-82
2023/06/01 03:08:19;;;;;;;6.15;3.13;;;15.30;69.20;;;;;;5012123;28;20466;-84
2023/06/01 03:10:45;;;;;;;7.57;3.27;;;15.30;69.30;;;;;;5025741;28;20079;-83
2023/06/01 03:13:11;;;;;;;5.97;3.20;;;15.20;69.20;;;;;;5064827;28;20476;-82
2023/06/01 03:15:37;;;;;;;7.43;3.10;;;15.20;69.50;;;;;;5066451;28;20070;-83
2023/06/01 03:18:05;;;;;;;5.23;2.93;;;15.20;69.60;;;;;;5031970;28;20025;-83
2023/06/01 03:20:31;;;;;;;5.28;3.22;;;15.20;69.50;;;;;;5036761;28;20226;-81
2023/06/01 03:22:57;;;;;;;6.72;3.30;;;15.20;69.50;;;;;;5021555;28;20386;-82
2023/06/01 03:25:24;;;;;;;5.93;3.37;;;15.10;69.30;;;;;;5037393;28;20024;-82
2023/06/01 03:27:50;;;;;;;5.85;3.28;;;15.10;69.30;;;;;;5030391;28;20078;-82
2023/06/01 03:30:16;;;;;;;6.18;3.58;;;15.10;69.30;;;;;;5059483;28;20041;-82
2023/06/01 03:32:43;;;;;;;5.97;3.05;;;15.00;69.60;;;;;;5025461;28;20283;-84
2023/06/01 03:35:10;;;;;;;4.90;3.30;;;15.00;69.90;;;;;;5025393;28;20044;-83
2023/06/01 03:37:38;;;;;;;6.45;3.22;;;15.00;69.80;;;;;;5049277;28;20024;-82
2023/06/01 03:40:10;;;;;;;6.35;3.75;;;14.90;70.00;;;;;;5041721;28;20753;-85
2023/06/01 03:42:41;;;;;;;7.22;3.50;;;14.90;69.80;;;;;;5036543;28;20413;-84
2023/06/01 03:45:07;;;;;;;7.15;3.30;;;14.90;70.60;;;;;;5078409;28;20033;-82
2023/06/01 03:47:36;;;;;;;6.40;3.20;;;14.80;69.90;;;;;;5030874;28;20050;-83
2023/06/01 03:50:06;;;;;;;5.95;3.10;;;14.80;69.90;;;;;;5049162;28;20106;-83
2023/06/01 03:52:32;;;;;;;8.18;3.65;;;14.80;70.30;;;;;;5055469;28;20029;-82
2023/06/01 03:55:00;;;;;;;5.35;3.28;;;14.70;70.20;;;;;;5018046;28;20481;-82
2023/06/01 03:57:26;;;;;;;7.40;3.53;;;14.70;70.50;;;;;;5047275;28;20032;-84
2023/06/01 03:59:52;;;;;;;6.90;3.33;;;14.70;70.30;;;;;;5045504;28;20025;-81
2023/06/01 04:02:18;;;;;;;6.72;3.40;;;14.70;70.40;;;;;;5054955;28;20060;-83
2023/06/01 04:04:45;;;;;;;6.55;3.47;;;14.70;70.50;;;;;;5038272;28;20592;-83
2023/06/01 04:07:14;;;;;;;5.78;3.30;;;14.60;70.60;;;;;;5037969;28;20115;-83
2023/06/01 04:09:44;;;;;;;6.27;3.57;;;14.60;70.60;;;;;;5001842;28;20033;-84
2023/06/01 04:12:10;;;;;;;5.03;3.13;;;14.60;71.20;;;;;;5043985;28;20328;-83
2023/06/01 04:14:36;;;;;;;6.85;3.40;;;14.60;70.70;;;;;;5035722;28;20098;-82
2023/06/01 04:17:02;;;;;;;5.38;3.40;;;14.60;70.50;;;;;;5062168;28;20020;-82
2023/06/01 04:19:28;;;;;;;6.38;3.42;;;14.60;70.90;;;;;;5038409;28;21485;-82
2023/06/01 04:21:54;;;;;;;6.03;3.43;;;14.60;70.90;;;;;;5033246;28;20032;-82
2023/06/01 04:24:20;;;;;;;7.93;3.65;;;14.60;71.20;;;;;;5057678;28;20020;-82
2023/06/01 04:26:46;;;;;;;5.95;3.47;;;14.70;71.40;;;;;;5014971;28;20146;-82
2023/06/01 04:29:12;;;;;;;5.77;3.30;;;14.70;71.40;;;;;;5034904;28;20696;-84
2023/06/01 04:31:39;;;;;;;6.80;3.50;;;14.70;71.50;;;;;;5050415;28;20044;-83
2023/06/01 04:34:05;;;;;;;6.90;4.07;;;14.70;71.50;;;;;;5028038;28;20615;-82
2023/06/01 04:36:37;;;;;;;7.60;4.15;;;14.70;71.30;;;;;;5038396;28;20027;-84
2023/06/01 04:39:03;;;;;;;7.53;4.10;;;14.80;71.50;;;;;;5023192;28;20453;-85
2023/06/01 04:41:30;;;;;;;8.75;4.45;;;14.80;71.40;;;;;;5021776;28;20301;-82
2023/06/01 04:43:58;;;;;;;8.00;4.10;;;14.70;71.50;;;;;;5047160;28;20401;-82
2023/06/01 04:46:26;;;;;;;6.93;3.55;;;14.80;71.80;;;;;;5043408;28;20024;-85
2023/06/01 04:48:52;;;;;;;8.52;4.30;;;14.80;71.80;;;;;;5035789;28;20115;-84
2023/06/01 04:51:19;;;;;;;8.30;4.13;;;14.90;71.60;;;;;;5011017;28;20955;-84
2023/06/01 04:53:51;;;;;;;6.20;3.67;;;14.90;71.60;;;;;;5060273;28;20144;-85
2023/06/01 04:56:24;;;;;;;7.47;4.40;;;14.90;71.90;;;;;;5054301;28;20032;-83
2023/06/01 04:58:55;;;;;;;6.80;3.92;;;14.90;72.10;;;;;;5037673;28;20439;-83
2023/06/01 05:01:25;;;;;;;8.25;4.18;;;14.90;72.00;;;;;;5017709;28;20395;-83
2023/06/01 05:03:54;;;;;;;5.97;3.60;;;14.90;71.80;;;;;;5029905;28;20036;-85
2023/06/01 05:06:21;;;;;;;7.63;3.95;;;14.90;71.50;;;;;;5064445;28;20789;-83
2023/06/01 05:08:47;;;;;;;6.55;3.72;;;14.80;71.60;;;;;;5040164;28;20059;-82
2023/06/01 05:11:13;;;;;;;6.32;3.63;;;14.80;71.60;;;;;;5052410;28;20033;-80
2023/06/01 05:13:39;;;;;;;6.23;3.63;;;14.80;72.50;;;;;;5022123;28;20068;-83
2023/06/01 05:16:07;;;;;;;5.82;3.22;;;14.80;71.80;;;;;;5033598;28;20218;-82
2023/06/01 05:18:34;;;;;;;5.32;3.38;;;14.80;71.90;;;;;;5042301;28;20033;-83
2023/06/01 05:21:00;;;;;;;6.32;3.70;;;14.80;72.10;;;;;;5010330;28;20982;-83
2023/06/01 05:23:26;;;;;;;6.70;3.92;;;14.90;71.90;;;;;;5032320;28;20040;-82
2023/06/01 05:26:02;;;;;;;7.97;4.43;;;14.90;72.00;;;;;;5046004;28;20097;-80
2023/06/01 05:28:32;;;;;;;7.78;4.18;;;14.90;72.10;;;;;;5018527;28;20127;-83
2023/06/01 05:30:58;;;;;;;7.50;4.05;;;14.90;72.40;;;;;;5067141;28;20085;-80
2023/06/01 05:33:24;;;;;;;8.75;4.32;;;14.90;72.00;;;;;;5032946;28;20025;-77
2023/06/01 05:35:50;;;;;;;7.65;3.88;;;15.00;72.10;;;;;;5028766;28;20064;-83
2023/06/01 05:38:15;;;;;;;6.73;3.70;;;15.00;72.20;;;;;;5026660;28;20577;-80
2023/06/01 05:40:41;;;;;;;6.03;3.70;;;15.00;72.20;;;;;;5068820;28;20071;-81
2023/06/01 05:43:07;;;;;;;6.97;3.93;;;15.00;72.20;;;;;;5017082;28;20864;-81
2023/06/01 05:45:33;;;;;;;7.35;4.00;;;15.00;72.10;;;;;;5042700;28;20028;-83
2023/06/01 05:47:59;;;;;;;7.82;4.63;;;15.00;72.20;;;;;;5058598;28;20481;-82
2023/06/01 05:50:25;;;;;;;7.95;4.70;;;15.00;72.10;;;;;;5045797;28;20045;-80
2023/06/01 05:52:51;;;;;;;7.37;4.43;;;15.00;72.10;;;;;;5008252;28;20118;-81
2023/06/01 05:55:17;;;;;;;8.57;4.90;;;15.00;72.20;;;;;;5052173;28;20371;-83
2023/06/01 05:57:43;;;;;;;8.02;4.55;;;15.00;72.10;;;;;;5023852;28;20098;-82
2023/06/01 06:00:10;;;;;;;9.30;4.53;;;15.00;72.40;;;;;;5016578;28;20114;-81
2023/06/01 06:02:36;;;;;;;7.90;4.15;;;15.00;72.30;;;;;;5039554;28;20029;-81
2023/06/01 06:05:03;;;;;;;7.55;4.07;;;15.00;72.40;;;;;;5047430;28;20037;-79
2023/06/01 06:07:29;;;;;;;9.07;4.70;;;15.00;72.90;;;;;;5049771;28;20336;-84
2023/06/01 06:09:55;;;;;;;7.53;4.40;;;15.10;72.90;;;;;;5021814;28;20232;-84
2023/06/01 06:12:21;;;;;;;9.18;5.07;;;15.10;72.90;;;;;;5076930;27;20497;-80
2023/06/01 06:14:48;;;;;;;11.30;5.47;;;15.20;72.80;;;;;;5017988;28;20031;-81
2023/06/01 06:17:14;;;;;;;10.57;5.07;;;15.20;72.90;;;;;;5052004;28;20387;-80
2023/06/01 06:19:43;;;;;;;8.80;4.57;;;15.20;72.90;;;;;;5049413;28;20036;-82
2023/06/01 06:22:09;;;;;;;7.77;4.40;;;15.30;72.90;;;;;;5027554;28;20422;-81
2023/06/01 06:24:35;;;;;;;8.25;4.80;;;15.30;73.10;;;;;;5075683;28;20357;-82
2023/06/01 06:27:02;;;;;;;8.18;4.28;;;15.40;73.10;;;;;;5048882;28;20721;-82
2023/06/01 06:29:27;;;;;;;10.48;5.18;;;15.50;73.00;;;;;;5025225;28;20037;-81
2023/06/01 06:31:53;;;;;;;9.53;5.13;;;15.50;72.80;;;;;;5016048;28;20072;-82
2023/06/01 06:34:19;;;;;;;8.23;4.50;;;15.60;73.00;;;;;;5038081;28;20104;-80
2023/06/01 06:36:45;;;;;;;8.20;4.90;;;15.70;72.90;;;;;;5055428;28;20107;-80
2023/06/01 06:39:11;;;;;;;7.22;4.20;;;15.70;72.70;;;;;;5038644;28;20048;-80
2023/06/01 06:41:36;;;;;;;6.35;3.55;;;15.70;72.80;;;;;;5037967;28;20032;-81
2023/06/01 06:44:02;;;;;;;6.90;4.10;;;15.80;72.90;;;;;;5065643;28;20029;-82
2023/06/01 06:46:28;;;;;;;6.80;3.65;;;15.90;72.80;;;;;;5037938;28;20576;-83
2023/06/01 06:48:55;;;;;;;7.10;3.97;;;15.90;73.10;;;;;;5039024;28;20048;-84
2023/06/01 06:51:21;;;;;;;7.28;4.03;;;16.00;73.10;;;;;;5051371;28;20290;-81
2023/06/01 06:53:47;;;;;;;6.72;4.22;;;16.00;72.90;;;;;;5017421;28;20028;-82
2023/06/01 06:56:12;;;;;;;8.30;3.88;;;16.10;73.00;;;;;;5021757;28;20055;-82
2023/06/01 06:58:38;;;;;;;9.50;4.60;;;16.20;72.90;;;;;;5031971;28;20025;-80
2023/06/01 07:01:05;;;;;;;8.20;4.67;;;16.30;72.70;;;;;;5039486;28;20446;-84
2023/06/01 07:03:33;;;;;;;8.30;4.53;;;16.30;72.80;;;;;;5026339;28;20651;-82
2023/06/01 07:05:59;;;;;;;8.45;4.53;;;16.40;73.10;;;;;;5035679;28;20798;-83
2023/06/01 07:08:26;;;;;;;8.70;4.60;;;16.50;72.90;;;;;;5048951;28;22986;-81
2023/06/01 07:10:54;;;;;;;7.15;4.13;;;16.60;73.00;;;;;;5045338;28;20029;-80
2023/06/01 07:13:19;;;;;;;5.40;3.55;;;16.80;73.40;;;;;;5028263;28;20729;-81
2023/06/01 07:15:45;;;;;;;5.73;3.80;;;16.90;73.30;;;;;;5053612;28;20037;-80
2023/06/01 07:18:12;;;;;;;7.97;4.35;;;17.00;72.80;;;;;;5012209;28;20482;-83
2023/06/01 07:20:37;;;;;;;7.30;3.95;;;17.10;72.30;;;;;;5059649;28;20021;-83
2023/06/01 07:23:03;;;;;;;6.33;3.47;;;17.20;71.80;;;;;;5069638;28;20451;-85
2023/06/01 07:25:29;;;;;;;7.18;3.80;;;17.10;71.40;;;;;;5024598;28;20253;-82
2023/06/01 07:27:56;;;;;;;7.87;3.60;;;17.10;71.20;;;;;;5036503;28;20051;-82
2023/06/01 07:30:22;;;;;;;7.30;3.58;;;17.10;71.20;;;;;;5059689;28;20033;-79
2023/06/01 07:32:48;;;;;;;4.97;3.45;;;17.10;71.30;;;;;;5042181;28;20120;-83
2023/06/01 07:35:13;;;;;;;5.80;3.80;;;17.20;71.80;;;;;;5038947;28;20032;-81
2023/06/01 07:37:40;;;;;;;5.93;3.67;;;17.30;72.10;;;;;;5033115;28;20283;-82
2023/06/01 07:40:07;;;;;;;5.88;3.60;;;17.40;73.10;;;;;;5042149;28;20736;-81
2023/06/01 07:42:33;;;;;;;5.32;3.30;;;17.50;73.10;;;;;;5059239;27;20339;-81
2023/06/01 07:44:59;;;;;;;6.97;4.20;;;17.80;72.80;;;;;;5078762;27;20389;-83
2023/06/01 07:47:25;;;;;;;6.82;3.80;;;17.90;72.10;;;;;;5048145;28;20036;-82
2023/06/01 07:49:51;;;;;;;6.10;3.58;;;18.00;71.60;;;;;;5046403;28;20048;-81
2023/06/01 07:52:17;;;;;;;5.72;3.92;;;18.10;71.10;;;;;;5050620;28;20666;-80
2023/06/01 07:54:43;;;;;;;7.23;3.87;;;18.30;71.30;;;;;;5068093;28;20036;-81
2023/06/01 07:57:09;;;;;;;6.60;4.15;;;18.30;71.70;;;;;;5038335;28;20654;-82
2023/06/01 07:59:35;;;;;;;6.47;3.50;;;18.60;72.80;;;;;;5033794;28;20520;-81
2023/06/01 08:02:00;;;;;;;6.73;3.53;;;18.80;73.80;;;;;;5050710;28;20729;-82
2023/06/01 08:04:27;;;;;;;5.32;3.70;;;19.20;74.90;;;;;;5018535;28;20145;-78
2023/06/01 08:06:53;;;;;;;6.78;4.47;;;19.70;75.60;;;;;;5041095;28;20067;-81
2023/06/01 08:09:23;;;;;;;5.90;4.10;;;20.20;75.30;;;;;;5052801;28;20028;-81
2023/06/01 08:11:50;;;;;;;6.32;3.90;;;20.80;74.60;;;;;;5054082;28;20108;-81
2023/06/01 08:14:16;;;;;;;5.15;4.10;;;21.20;74.50;;;;;;5032017;28;20206;-82
2023/06/01 08:16:43;;;;;;;5.60;4.20;;;21.70;74.10;;;;;;5055100;28;20358;-81
2023/06/01 08:19:08;;;;;;;6.85;4.43;;;22.20;73.20;;;;;;5025001;28;20024;-84
2023/06/01 08:21:35;;;;;;;5.67;3.97;;;22.70;72.70;;;;;;5032199;28;20052;-82
2023/06/01 08:24:01;;;;;;;5.18;4.32;;;23.10;72.30;;;;;;5036973;28;20036;-83
2023/06/01 08:26:28;;;;;;;5.75;3.92;;;23.60;71.40;;;;;;5059989;28;20017;-81
2023/06/01 08:28:54;;;;;;;6.38;4.15;;;24.00;70.40;;;;;;5019449;28;20028;-80
2023/06/01 08:31:24;;;;;;;5.38;3.70;;;24.30;69.90;;;;;;5038794;28;20045;-82
2023/06/01 08:33:51;;;;;;;4.93;3.53;;;24.70;68.30;;;;;;5026435;28;20077;-80
2023/06/01 08:36:18;;;;;;;6.53;3.95;;;25.10;68.10;;;;;;5035712;28;20051;-80
2023/06/01 08:38:43;;;;;;;4.68;3.47;;;25.40;66.90;;;;;;5023988;28;20029;-86
2023/06/01 08:41:21;;;;;;;5.35;3.63;;;25.60;66.70;;;;;;5063578;28;20059;-83
2023/06/01 08:43:58;;;;;;;4.77;3.30;;;25.90;64.90;;;;;;5067316;28;20024;-84
2023/06/01 08:46:25;;;;;;;4.55;3.05;;;26.10;63.40;;;;;;5053250;28;20105;-83
2023/06/01 08:48:55;;;;;;;4.32;3.55;;;26.40;64.00;;;;;;5046054;28;20041;-78
2023/06/01 08:51:23;;;;;;;4.97;3.80;;;26.50;61.90;;;;;;5021693;28;20045;-80
2023/06/01 08:53:50;;;;;;;5.18;3.72;;;26.60;61.80;;;;;;5016200;28;20093;-85
2023/06/01 08:56:16;;;;;;;4.63;3.60;;;26.80;61.60;;;;;;5051198;28;20031;-81
2023/06/01 08:58:44;;;;;;;4.82;3.33;;;27.00;61.60;;;;;;5038207;28;20060;-82
2023/06/01 09:01:15;;;;;;;5.05;3.30;;;27.10;60.50;;;;;;5052112;28;20032;-81
2023/06/01 09:03:41;;;;;;;5.18;3.05;;;27.30;60.00;;;;;;5066824;28;20082;-80
2023/06/01 09:06:07;;;;;;;4.10;3.17;;;27.40;59.60;;;;;;5005058;28;20033;-82
2023/06/01 09:08:33;;;;;;;3.88;2.85;;;27.60;59.50;;;;;;5043326;28;20024;-82
2023/06/01 09:10:59;;;;;;;4.13;3.40;;;27.70;59.50;;;;;;5065223;28;20329;-81
2023/06/01 09:13:33;;;;;;;4.00;3.00;;;27.90;58.60;;;;;;5052478;28;20020;-79
2023/06/01 09:15:59;;;;;;;4.97;3.40;;;28.00;57.30;;;;;;5031172;28;20598;-80
2023/06/01 09:18:25;;;;;;;3.97;3.40;;;28.20;58.30;;;;;;5085949;27;20024;-81
2023/06/01 09:20:53;;;;;;;4.53;3.20;;;28.40;57.50;;;;;;5077557;27;20165;-82
2023/06/01 09:23:28;;;;;;;4.88;3.40;;;28.60;57.20;;;;;;5023637;28;20033;-81
2023/06/01 09:26:11;;;;;;;5.40;3.42;;;28.80;55.60;;;;;;5045579;28;20017;-85
2023/06/01 09:28:55;;;;;;;8.80;3.60;;;29.00;55.50;;;;;;5044364;28;20359;-82
2023/06/01 09:31:41;;;;;;;5.60;3.88;;;29.20;54.00;;;;;;5037843;28;20060;-81
2023/06/01 09:34:08;;;;;;;5.13;3.40;;;29.20;52.70;;;;;;5033437;28;21295;-82
2023/06/01 09:36:35;;;;;;;4.78;3.65;;;29.30;54.40;;;;;;5050286;28;20025;-82
2023/06/01 09:39:13;;;;;;;4.45;3.28;;;29.40;54.10;;;;;;5028822;28;20598;-81
2023/06/01 09:41:55;;;;;;;5.72;3.65;;;29.50;52.80;;;;;;5045467;28;20127;-84
2023/06/01 09:44:27;;;;;;;6.50;3.28;;;29.70;52.50;;;;;;5051633;28;20033;-80
2023/06/01 09:46:58;;;;;;;5.00;3.07;;;29.80;51.60;;;;;;5024054;28;20114;-82
2023/06/01 09:49:25;;;;;;;5.25;3.60;;;29.80;51.40;;;;;;5043594;28;20040;-80
2023/06/01 09:52:14;;;;;;;6.05;4.07;;;30.00;52.10;;;;;;5051113;28;22037;-80
2023/06/01 09:54:49;;;;;;;4.68;3.72;;;30.00;51.10;;;;;;5022587;28;20040;-85
2023/06/01 09:57:24;;;;;;;5.53;3.97;;;30.00;50.80;;;;;;5069103;28;20010;-81
2023/06/01 09:59:50;;;;;;;5.50;3.97;;;30.10;48.90;;;;;;5062611;28;20581;-82
2023/06/01 10:02:21;;;;;;;5.03;3.75;;;30.10;50.30;;;;;;5042834;28;20025;-80
2023/06/01 10:04:52;;;;;;;6.65;3.80;;;30.20;49.80;;;;;;5024968;28;20033;-83
2023/06/01 10:07:20;;;;;;;5.43;4.00;;;30.20;49.30;;;;;;5050462;28;20127;-82
2023/06/01 10:09:53;;;;;;;6.13;3.40;;;30.30;49.60;;;;;;5028901;28;20032;-83
2023/06/01 10:12:21;;;;;;;6.07;4.20;;;30.40;49.20;;;;;;5063302;28;20031;-83
2023/06/01 10:14:48;;;;;;;7.68;4.60;;;30.50;48.60;;;;;;5047394;28;20047;-82
2023/06/01 10:17:16;;;;;;;7.88;4.53;;;30.40;47.80;;;;;;5039984;28;20434;-80
2023/06/01 10:19:42;;;;;;;5.63;4.43;;;30.40;48.20;;;;;;5033151;28;20024;-84
2023/06/01 10:22:10;;;;;;;5.68;3.90;;;30.40;48.30;;;;;;5038744;28;20025;-80
2023/06/01 10:24:42;;;;;;;5.27;4.27;;;30.50;48.30;;;;;;5056754;28;20111;-83
2023/06/01 10:27:20;;;;;;;6.68;4.40;;;30.50;47.80;;;;;;5020687;28;20483;-79
2023/06/01 10:29:46;;;;;;;5.15;3.83;;;30.50;47.50;;;;;;5035868;28;20375;-83
2023/06/01 10:32:37;;;;;;;5.15;3.88;;;30.50;47.80;;;;;;5043982;28;20125;-79
2023/06/01 10:35:04;;;;;;;6.90;3.70;;;30.70;47.30;;;;;;5063950;27;20302;-79
2023/06/01 10:37:30;;;;;;;5.50;4.40;;;30.90;48.60;;;;;;5055129;28;20118;-83
2023/06/01 10:40:14;;;;;;;5.85;4.07;;;31.20;47.40;;;;;;5065229;28;20181;-82
2023/06/01 10:42:40;;;;;;;6.10;4.43;;;31.30;46.30;;;;;;5022534;28;20397;-82
2023/06/01 10:45:07;;;;;;;5.03;3.80;;;31.30;45.70;;;;;;5081134;27;20833;-82
2023/06/01 10:47:32;;;;;;;6.30;4.53;;;31.20;45.90;;;;;;5046954;28;21299;-84
2023/06/01 10:49:58;;;;;;;5.82;4.20;;;31.20;45.10;;;;;;5049296;28;20032;-81
2023/06/01 10:52:27;;;;;;;6.60;4.23;;;31.20;45.50;;;;;;5064645;27;20032;-80
2023/06/01 10:54:54;;;;;;;5.15;3.85;;;31.20;45.70;;;;;;5054064;28;20119;-80
2023/06/01 10:57:25;;;;;;;5.95;4.25;;;31.30;46.00;;;;;;5052539;27;20024;-82
2023/06/01 11:00:14;;;;;;;6.00;4.72;;;31.40;44.70;;;;;;5052649;28;20144;-78
2023/06/01 11:02:50;;;;;;;6.87;4.40;;;31.50;44.40;;;;;;5045498;28;20882;-82
2023/06/01 11:05:34;;;;;;;5.07;3.97;;;31.50;44.10;;;;;;5053649;28;20029;-84
2023/06/01 11:08:00;;;;;;;6.78;4.18;;;31.70;44.10;;;;;;5037429;28;20458;-83
2023/06/01 11:10:54;;;;;;;6.40;4.35;;;31.80;44.70;;;;;;5077704;27;20112;-83
2023/06/01 11:13:19;;;;;;;5.20;4.05;;;31.80;44.20;;;;;;5021214;28;20040;-83
2023/06/01 11:16:04;;;;;;;6.23;4.30;;;31.90;43.90;;;;;;5047411;28;20021;-79
2023/06/01 11:19:00;;;;;;;4.55;3.78;;;31.90;42.40;;;;;;5049879;28;20684;-84
2023/06/01 11:21:30;;;;;;;5.78;4.32;;;31.90;43.20;;;;;;5054614;28;20251;-80
2023/06/01 11:23:58;;;;;;;5.10;3.93;;;32.00;43.20;;;;;;5066639;27;20094;-82
2023/06/01 11:26:39;;;;;;;6.20;4.03;;;32.00;43.50;;;;;;5015924;28;20622;-83
2023/06/01 11:29:19;;;;;;;5.15;4.03;;;32.10;43.50;;;;;;5044870;28;20039;-82
2023/06/01 11:31:54;;;;;;;5.45;3.88;;;32.30;43.30;;;;;;5039540;28;20450;-78
2023/06/01 11:34:29;;;;;;;5.15;3.90;;;32.50;42.50;;;;;;5038629;28;20032;-81
2023/06/01 11:36:57;;;;;;;4.90;3.60;;;32.70;42.70;;;;;;5043104;28;20096;-83
2023/06/01 11:39:24;;;;;;;5.40;3.78;;;32.90;43.50;;;;;;5033535;28;20456;-84
2023/06/01 11:42:13;;;;;;;5.22;3.90;;;33.10;42.60;;;;;;5067798;28;20056;-79
2023/06/01 11:44:46;;;;;;;6.68;4.35;;;33.20;40.80;;;;;;5017105;28;20028;-83
2023/06/01 11:47:12;;;;;;;5.55;3.80;;;33.30;40.80;;;;;;5061956;28;20568;-83
2023/06/01 11:49:47;;;;;;;6.20;4.37;;;33.20;40.60;;;;;;5061671;28;20234;-83
2023/06/01 11:52:12;;;;;;;5.88;4.43;;;33.00;39.80;;;;;;5068552;27;20082;-78
2023/06/01 11:54:38;;;;;;;5.70;4.10;;;32.80;39.90;;;;;;5033873;28;20033;-81
2023/06/01 11:57:08;;;;;;;7.47;4.10;;;32.70;40.30;;;;;;5065047;28;20671;-79
2023/06/01 11:59:45;;;;;;;5.50;4.07;;;32.60;40.10;;;;;;5031117;28;20029;-80
2023/06/01 12:02:24;;;;;;;5.43;4.03;;;32.50;39.80;;;;;;5052821;28;20481;-79
2023/06/01 12:05:08;;;;;;;5.18;3.70;;;32.50;39.70;;;;;;5044304;28;20029;-80
2023/06/01 12:07:48;;;;;;;5.80;3.95;;;32.40;39.90;;;;;;5024415;28;20044;-82
2023/06/01 12:10:16;;;;;;;6.07;3.90;;;32.30;40.00;;;;;;5019921;28;20024;-79
2023/06/01 12:12:45;;;;;;;6.33;4.03;;;32.40;40.90;;;;;;5061964;28;20032;-85
2023/06/01 12:15:15;;;;;;;5.55;3.97;;;32.50;41.00;;;;;;5051497;27;20058;-80
2023/06/01 12:17:51;;;;;;;6.15;4.45;;;32.70;41.00;;;;;;5075876;27;20021;-81
2023/06/01 12:20:30;;;;;;;5.55;3.83;;;32.80;39.80;;;;;;5045643;28;20032;-81
2023/06/01 12:22:57;;;;;;;5.32;3.72;;;32.90;40.00;;;;;;5033349;28;20506;-83
2023/06/01 12:25:24;;;;;;;5.00;3.93;;;33.10;40.70;;;;;;5079997;27;20036;-78
2023/06/01 12:28:03;;;;;;;6.05;4.05;;;33.30;40.50;;;;;;5027134;28;20514;-81
2023/06/01 12:30:29;;;;;;;5.50;3.72;;;33.40;38.70;;;;;;5023121;28;20457;-85
2023/06/01 12:32:55;;;;;;;9.60;4.65;;;33.50;39.80;;;;;;5046016;28;20122;-82
2023/06/01 12:35:23;;;;;;;5.83;4.07;;;33.60;38.50;;;;;;5078391;28;20027;-84
2023/06/01 12:38:10;;;;;;;5.97;4.28;;;33.40;37.90;;;;;;5035945;28;20029;-83
2023/06/01 12:40:36;;;;;;;5.90;4.10;;;33.30;37.50;;;;;;5034626;28;20041;-82
2023/06/01 12:43:06;;;;;;;5.55;4.05;;;33.20;38.60;;;;;;5042112;28;20039;-79
2023/06/01 12:45:36;;;;;;;6.53;4.10;;;33.10;38.20;;;;;;5020618;28;20036;-82
2023/06/01 12:48:04;;;;;;;5.13;4.00;;;33.00;37.40;;;;;;5047514;28;20043;-80
2023/06/01 12:50:30;;;;;;;5.55;3.90;;;32.90;37.90;;;;;;5064501;28;21215;-82
2023/06/01 12:52:55;;;;;;;5.82;4.15;;;32.90;38.30;;;;;;5051002;28;20025;-81
2023/06/01 12:55:21;;;;;;;5.37;4.00;;;33.00;38.30;;;;;;5052567;28;20021;-79